Terminal Aerodrome Forecast
Issued by NWS Mt. Holly, NJ

Home | Current Version | Previous Version | Text Only | Print | Product List | Glossary On
Versions: 1 2 3 4 5 6 7 8 9 10 11 12 13 14 15 16 17 18 19 20 21 22 23 24 25 26 27 28 29 30 31 32 33 34 35 36 37 38 39 40 41
000
FTAK31 PANC 180206 AAA
TAFABE
TAF AMD
PABE 180206Z 1802/1824 32015KT 6SM -SN BKN015 OVC025
      TEMPO 1802/1804 19006KT BKN025 OVC035
     FM180400 19006KT P6SM BKN025 OVC035
     FM181200 15015KT P6SM -SN BKN035 OVC050
     FM182100 15020G30KT 6SM -SNRA SCT025 BKN035=

USA.gov is the U.S. government's official web portal to all federal, state and local government web resources and services.